createdAt,value
2022-09-25T00:01:27.157Z,13.30
2022-09-25T00:03:55.287Z,13.30
2022-09-25T00:06:25.870Z,13.30
2022-09-25T00:08:54.552Z,13.30
2022-09-25T00:11:34.401Z,13.30
2022-09-25T00:14:10.487Z,13.20
2022-09-25T00:16:38.640Z,13.20
2022-09-25T00:19:25.115Z,13.10
2022-09-25T00:21:53.965Z,13.10
2022-09-25T00:24:21.928Z,13.10
2022-09-25T00:26:50.189Z,13.10
2022-09-25T00:29:20.345Z,13.10
2022-09-25T00:31:48.465Z,13.20
2022-09-25T00:34:16.357Z,13.20
2022-09-25T00:36:44.241Z,13.20
2022-09-25T00:39:12.134Z,13.20
2022-09-25T00:41:40.412Z,13.20
2022-09-25T00:44:46.822Z,13.20
2022-09-25T00:47:20.383Z,13.20
2022-09-25T00:49:48.885Z,13.20
2022-09-25T00:52:16.956Z,13.20
2022-09-25T00:54:54.676Z,13.20
2022-09-25T00:57:27.723Z,13.20
2022-09-25T00:59:59.397Z,13.20
2022-09-25T01:02:37.895Z,13.20
2022-09-25T01:05:09.811Z,13.20
2022-09-25T01:07:41.393Z,13.20
2022-09-25T01:10:09.755Z,13.20
2022-09-25T01:12:41.679Z,13.20
2022-09-25T01:15:14.952Z,13.20
2022-09-25T01:17:51.566Z,13.20
2022-09-25T01:20:30.567Z,13.20
2022-09-25T01:23:21.310Z,13.20
2022-09-25T01:26:16.651Z,13.20
2022-09-25T01:28:57.675Z,13.20
2022-09-25T01:31:39.422Z,13.20
2022-09-25T01:34:34.176Z,13.10
2022-09-25T01:37:27.318Z,13.10
2022-09-25T01:40:25.199Z,13.10
2022-09-25T01:42:58.292Z,13.10
2022-09-25T01:45:42.910Z,13.10
2022-09-25T01:48:14.285Z,13.10
2022-09-25T01:51:25.015Z,13.20
2022-09-25T01:53:57.892Z,13.20
2022-09-25T01:56:43.971Z,13.10
2022-09-25T01:59:19.875Z,13.20
2022-09-25T02:01:53.743Z,13.20
2022-09-25T02:04:53.168Z,13.20
2022-09-25T02:07:26.143Z,13.20
2022-09-25T02:09:57.677Z,13.20
2022-09-25T02:12:35.393Z,13.20
2022-09-25T02:15:14.544Z,13.20
2022-09-25T02:18:08.578Z,13.20
2022-09-25T02:20:38.083Z,13.20
2022-09-25T02:23:12.357Z,13.20
2022-09-25T02:26:06.654Z,13.20
2022-09-25T02:28:37.409Z,13.20
2022-09-25T02:31:09.067Z,13.20
2022-09-25T02:33:40.365Z,13.20
2022-09-25T02:36:15.599Z,13.10
2022-09-25T02:38:43.487Z,13.10
2022-09-25T02:41:37.016Z,13.10
2022-09-25T02:44:11.080Z,13.10
2022-09-25T02:47:16.402Z,13.10
2022-09-25T02:49:50.098Z,13.10
2022-09-25T02:52:28.679Z,13.10
2022-09-25T02:55:12.778Z,13.00
2022-09-25T02:57:54.149Z,13.00
2022-09-25T03:00:24.588Z,13.00
2022-09-25T03:03:09.264Z,13.00
2022-09-25T03:05:38.581Z,13.00
2022-09-25T03:08:26.054Z,12.90
2022-09-25T03:10:54.763Z,13.00
2022-09-25T03:13:33.208Z,12.90
2022-09-25T03:16:03.040Z,12.90
2022-09-25T03:18:32.381Z,12.90
2022-09-25T03:21:00.362Z,12.90
2022-09-25T03:23:28.206Z,12.90
2022-09-25T03:25:56.579Z,12.90
2022-09-25T03:28:24.993Z,12.90
2022-09-25T03:30:59.966Z,12.90
2022-09-25T03:33:30.177Z,12.90
2022-09-25T03:36:03.099Z,13.00
2022-09-25T03:38:31.023Z,13.00
2022-09-25T03:40:59.108Z,13.00
2022-09-25T03:43:34.732Z,13.00
2022-09-25T03:46:02.634Z,13.00
2022-09-25T03:48:31.229Z,13.00
2022-09-25T03:50:59.455Z,13.00
2022-09-25T03:53:27.669Z,13.00
2022-09-25T03:55:55.733Z,12.90
2022-09-25T03:58:23.780Z,12.90
2022-09-25T04:00:51.750Z,12.90
2022-09-25T04:03:20.427Z,12.90
2022-09-25T04:05:48.296Z,12.80
2022-09-25T04:08:17.236Z,12.80
2022-09-25T04:10:45.927Z,12.80
2022-09-25T04:13:13.908Z,12.80
2022-09-25T04:15:43.859Z,12.80
2022-09-25T04:18:11.807Z,12.80
2022-09-25T04:20:39.803Z,12.80
2022-09-25T04:23:07.727Z,12.90
2022-09-25T04:25:36.906Z,12.90
2022-09-25T04:28:05.732Z,12.90
2022-09-25T04:30:34.342Z,12.90
2022-09-25T04:33:21.481Z,12.90
2022-09-25T04:35:49.866Z,12.90
2022-09-25T04:38:17.723Z,13.00
2022-09-25T04:40:46.967Z,13.00
2022-09-25T04:43:15.416Z,13.00
2022-09-25T04:45:43.394Z,12.90
2022-09-25T04:48:11.288Z,13.00
2022-09-25T04:50:39.182Z,13.00
2022-09-25T04:53:07.103Z,13.00
2022-09-25T04:55:35.007Z,13.00
2022-09-25T04:58:03.027Z,13.00
2022-09-25T05:00:33.865Z,13.00
2022-09-25T05:03:05.019Z,13.00
2022-09-25T05:05:36.335Z,13.00
2022-09-25T05:08:08.563Z,13.00
2022-09-25T05:10:36.676Z,12.90
2022-09-25T05:13:05.434Z,12.90
2022-09-25T05:15:34.881Z,13.00
2022-09-25T05:18:07.081Z,12.90
2022-09-25T05:20:38.132Z,12.90
2022-09-25T05:23:06.037Z,12.90
2022-09-25T05:25:34.506Z,12.90
2022-09-25T05:28:04.143Z,12.90
2022-09-25T05:30:34.038Z,12.90
2022-09-25T05:33:02.107Z,12.90
2022-09-25T05:35:32.287Z,12.80
2022-09-25T05:38:00.495Z,12.80
2022-09-25T05:40:28.546Z,12.80
2022-09-25T05:42:56.436Z,12.80
2022-09-25T05:45:25.203Z,12.80
2022-09-25T05:48:06.974Z,12.80
2022-09-25T05:50:35.429Z,12.90
2022-09-25T05:53:05.794Z,12.90
2022-09-25T05:55:33.843Z,12.90
2022-09-25T05:58:05.807Z,12.90
2022-09-25T06:00:34.502Z,12.90
2022-09-25T06:03:03.590Z,12.90
2022-09-25T06:05:31.516Z,12.90
2022-09-25T06:07:59.632Z,13.00
2022-09-25T06:10:28.243Z,13.00
2022-09-25T06:13:03.732Z,13.00
2022-09-25T06:15:37.878Z,13.00
2022-09-25T06:18:06.937Z,13.00
2022-09-25T06:20:34.792Z,13.00
2022-09-25T06:23:02.990Z,13.00
2022-09-25T06:25:33.624Z,13.00
2022-09-25T06:28:02.366Z,13.00
2022-09-25T06:30:35.362Z,13.00
2022-09-25T06:33:08.150Z,13.00
2022-09-25T06:35:36.512Z,13.00
2022-09-25T06:38:06.048Z,13.10
2022-09-25T06:40:34.751Z,13.00
2022-09-25T06:43:04.699Z,13.00
2022-09-25T06:45:37.040Z,13.00
2022-09-25T06:48:18.180Z,12.90
2022-09-25T06:50:56.466Z,13.00
2022-09-25T06:53:30.084Z,13.00
2022-09-25T06:56:00.110Z,13.00
2022-09-25T06:58:29.968Z,13.00
2022-09-25T07:00:58.250Z,13.00
2022-09-25T07:03:44.816Z,13.00
2022-09-25T07:06:15.702Z,13.00
2022-09-25T07:08:49.210Z,13.00
2022-09-25T07:11:23.176Z,13.00
2022-09-25T07:13:53.428Z,13.10
2022-09-25T07:16:23.049Z,13.10
2022-09-25T07:18:52.038Z,13.10
2022-09-25T07:21:22.365Z,13.20
2022-09-25T07:23:51.380Z,13.20
2022-09-25T07:26:24.477Z,13.30
2022-09-25T07:28:59.879Z,13.30
2022-09-25T07:31:30.349Z,13.20
2022-09-25T07:34:01.287Z,13.30
2022-09-25T07:36:29.737Z,13.30
2022-09-25T07:38:57.581Z,13.30
2022-09-25T07:41:26.263Z,13.40
2022-09-25T07:44:06.318Z,13.50
2022-09-25T07:46:45.295Z,13.50
2022-09-25T07:49:13.463Z,13.60
2022-09-25T07:51:41.336Z,13.70
2022-09-25T07:54:09.307Z,13.70
2022-09-25T07:56:39.160Z,13.80
2022-09-25T07:59:07.156Z,13.80
2022-09-25T08:01:39.531Z,13.90
2022-09-25T08:04:10.726Z,13.90
2022-09-25T08:06:39.612Z,14.00
2022-09-25T08:09:10.547Z,14.10
2022-09-25T08:11:39.227Z,14.10
2022-09-25T08:14:07.253Z,14.10
2022-09-25T08:16:38.718Z,14.20
2022-09-25T08:19:09.048Z,14.20
2022-09-25T08:21:37.050Z,14.40
2022-09-25T08:24:08.085Z,14.50
2022-09-25T08:26:36.068Z,14.50
2022-09-25T08:29:05.940Z,14.50
2022-09-25T08:31:34.208Z,14.50
2022-09-25T08:34:21.110Z,14.50
2022-09-25T08:36:52.009Z,14.50
2022-09-25T08:39:19.931Z,14.60
2022-09-25T08:41:51.671Z,14.60
2022-09-25T08:44:56.934Z,14.60
2022-09-25T08:47:49.335Z,14.50
2022-09-25T08:50:23.575Z,14.50
2022-09-25T08:53:04.240Z,14.40
2022-09-25T08:55:55.903Z,14.30
2022-09-25T08:58:32.478Z,14.40
2022-09-25T09:01:07.419Z,14.50
2022-09-25T09:04:08.169Z,14.50
2022-09-25T09:06:39.094Z,14.50
2022-09-25T09:09:18.888Z,14.50
2022-09-25T09:11:58.894Z,14.50
2022-09-25T09:14:31.688Z,14.60
2022-09-25T09:17:25.133Z,14.60
2022-09-25T09:19:59.684Z,14.70
2022-09-25T09:22:45.485Z,14.80
2022-09-25T09:25:32.827Z,14.90
2022-09-25T09:28:12.595Z,15.00
2022-09-25T09:30:58.785Z,15.00
2022-09-25T09:33:58.991Z,15.10
2022-09-25T09:36:39.554Z,15.30
2022-09-25T09:39:25.039Z,15.40
2022-09-25T09:42:05.903Z,15.80
2022-09-25T09:44:45.983Z,17.10
2022-09-25T09:47:44.491Z,18.20
2022-09-25T09:50:41.911Z,18.80
2022-09-25T09:53:41.399Z,19.30
2022-09-25T09:56:16.355Z,19.50
2022-09-25T09:58:52.528Z,19.70
2022-09-25T10:04:15.768Z,19.60
2022-09-25T10:06:51.204Z,19.10
2022-09-25T10:09:19.608Z,19.10
2022-09-25T10:11:57.149Z,18.80
2022-09-25T10:14:33.226Z,18.40
2022-09-25T10:17:03.144Z,18.10
2022-09-25T10:19:46.572Z,18.00
2022-09-25T10:22:21.793Z,17.90
2022-09-25T10:24:53.999Z,17.70
2022-09-25T10:27:21.889Z,17.70
2022-09-25T10:30:13.167Z,17.60
2022-09-25T10:32:58.554Z,17.60
2022-09-25T10:35:31.575Z,17.60
2022-09-25T10:38:02.379Z,17.60
2022-09-25T10:40:40.347Z,17.50
2022-09-25T10:43:21.727Z,17.30
2022-09-25T10:45:50.297Z,17.20
2022-09-25T10:48:55.877Z,17.20
2022-09-25T10:51:24.903Z,17.20
2022-09-25T10:54:01.129Z,17.10
2022-09-25T10:56:39.153Z,17.20
2022-09-25T10:59:22.190Z,17.20
2022-09-25T11:01:52.310Z,17.20
2022-09-25T11:04:26.020Z,17.10
2022-09-25T11:07:02.297Z,17.10
2022-09-25T11:09:33.559Z,17.00
2022-09-25T11:12:14.673Z,16.90
2022-09-25T11:14:56.411Z,16.70
2022-09-25T11:17:39.066Z,16.50
2022-09-25T11:20:33.066Z,16.30
2022-09-25T11:23:30.285Z,16.20
2022-09-25T11:26:21.589Z,15.90
2022-09-25T11:29:05.618Z,15.80
2022-09-25T11:31:55.595Z,15.60
2022-09-25T11:34:41.610Z,15.60
2022-09-25T11:37:55.815Z,15.40
2022-09-25T11:41:13.671Z,15.20
2022-09-25T11:44:09.890Z,15.00
2022-09-25T11:46:52.019Z,14.90
2022-09-25T11:49:25.423Z,14.80
2022-09-25T11:52:30.132Z,14.90
2022-09-25T11:55:12.525Z,14.80
2022-09-25T11:58:29.558Z,14.70
2022-09-25T12:01:12.024Z,14.60
2022-09-25T12:04:07.412Z,14.40
2022-09-25T12:07:06.825Z,14.20
2022-09-25T12:10:04.668Z,13.90
2022-09-25T12:13:06.230Z,13.90
2022-09-25T12:15:52.446Z,13.90
2022-09-25T12:18:28.394Z,14.10
2022-09-25T12:21:13.602Z,14.10
2022-09-25T12:24:00.442Z,14.20
2022-09-25T12:26:45.234Z,14.20
2022-09-25T12:29:27.195Z,14.50
2022-09-25T12:32:14.221Z,14.60
2022-09-25T12:35:00.198Z,14.60
2022-09-25T12:37:47.758Z,14.50
2022-09-25T12:40:33.607Z,14.50
2022-09-25T12:43:12.306Z,14.50
2022-09-25T12:45:46.557Z,14.50
2022-09-25T12:48:20.564Z,14.50
2022-09-25T12:51:19.922Z,14.50
2022-09-25T12:53:59.481Z,14.40
2022-09-25T12:56:51.466Z,14.30
2022-09-25T12:59:46.163Z,14.30
2022-09-25T13:02:31.291Z,14.30
2022-09-25T13:05:08.045Z,14.30
2022-09-25T13:07:54.714Z,14.30
2022-09-25T13:10:30.772Z,14.20
2022-09-25T13:13:02.790Z,14.20
2022-09-25T13:15:34.416Z,14.20
2022-09-25T13:18:05.445Z,14.20
2022-09-25T13:20:38.696Z,14.10
2022-09-25T13:23:12.439Z,14.10
2022-09-25T13:25:46.084Z,14.10
2022-09-25T13:28:23.922Z,14.20
2022-09-25T13:31:08.871Z,14.20
2022-09-25T13:34:10.519Z,14.20
2022-09-25T13:36:42.607Z,14.20
2022-09-25T13:39:46.849Z,14.30
2022-09-25T13:42:47.355Z,14.40
2022-09-25T13:45:35.374Z,14.50
2022-09-25T13:48:13.714Z,14.50
2022-09-25T13:50:47.209Z,14.30
2022-09-25T13:53:24.756Z,14.30
2022-09-25T13:56:01.650Z,14.40
2022-09-25T13:58:35.133Z,14.40
2022-09-25T14:01:19.892Z,14.50
2022-09-25T14:03:51.120Z,14.50
2022-09-25T14:06:26.815Z,14.60
2022-09-25T14:08:56.894Z,14.50
2022-09-25T14:11:32.350Z,14.40
2022-09-25T14:14:02.840Z,14.50
2022-09-25T14:16:55.514Z,14.60
2022-09-25T14:19:37.562Z,14.70
2022-09-25T14:22:06.947Z,14.70
2022-09-25T14:24:35.782Z,14.70
2022-09-25T14:27:03.698Z,14.80
2022-09-25T14:29:41.788Z,14.90
2022-09-25T14:32:56.501Z,15.00
2022-09-25T14:35:31.872Z,15.00
2022-09-25T14:38:26.368Z,15.00
2022-09-25T14:41:24.514Z,14.90
2022-09-25T14:44:01.227Z,14.90
2022-09-25T14:46:29.300Z,14.90
2022-09-25T14:49:07.687Z,15.00
2022-09-25T14:51:48.912Z,15.00
2022-09-25T14:54:26.703Z,15.20
2022-09-25T14:57:03.221Z,15.40
2022-09-25T14:59:47.498Z,15.60
2022-09-25T15:06:03.649Z,15.70
2022-09-25T15:08:41.699Z,15.60
2022-09-25T15:11:21.093Z,15.60
2022-09-25T15:13:49.301Z,15.60
2022-09-25T15:17:02.292Z,15.50
2022-09-25T15:19:34.794Z,15.40
2022-09-25T15:22:02.942Z,15.40
2022-09-25T15:24:35.436Z,15.40
2022-09-25T15:27:07.296Z,15.30
2022-09-25T15:29:38.446Z,15.20
2022-09-25T15:32:06.929Z,15.10
2022-09-25T15:34:35.195Z,15.10
2022-09-25T15:37:17.090Z,15.10
2022-09-25T15:39:45.653Z,15.10
2022-09-25T15:42:15.267Z,15.10
2022-09-25T15:44:43.593Z,15.10
2022-09-25T15:47:35.521Z,15.00
2022-09-25T15:50:14.877Z,15.00
2022-09-25T15:52:42.800Z,15.00
2022-09-25T15:55:15.718Z,15.00
2022-09-25T15:57:43.923Z,14.90
2022-09-25T16:00:45.740Z,14.90
2022-09-25T16:03:37.600Z,15.00
2022-09-25T16:06:06.078Z,14.90
2022-09-25T16:08:35.706Z,14.90
2022-09-25T16:11:10.374Z,14.90
2022-09-25T16:13:43.146Z,14.90
2022-09-25T16:16:30.482Z,14.90
2022-09-25T16:19:22.670Z,14.90
2022-09-25T16:21:55.944Z,14.80
2022-09-25T16:24:31.512Z,14.80
2022-09-25T16:27:05.295Z,14.70
2022-09-25T16:29:37.145Z,14.60
2022-09-25T16:32:08.289Z,14.60
2022-09-25T16:34:41.463Z,14.60
2022-09-25T16:37:22.425Z,14.60
2022-09-25T16:40:10.698Z,14.60
2022-09-25T16:42:41.879Z,14.60
2022-09-25T16:45:15.924Z,14.60
2022-09-25T16:47:48.991Z,14.60
2022-09-25T16:50:19.082Z,14.50
2022-09-25T16:52:48.098Z,14.40
2022-09-25T16:55:25.524Z,14.20
2022-09-25T16:57:54.816Z,14.10
2022-09-25T17:00:28.616Z,14.00
2022-09-25T17:02:58.275Z,14.10
2022-09-25T17:05:28.881Z,14.20
2022-09-25T17:08:01.003Z,14.20
2022-09-25T17:10:32.746Z,14.10
2022-09-25T17:13:03.162Z,14.10
2022-09-25T17:15:35.045Z,14.10
2022-09-25T17:18:04.057Z,14.10
2022-09-25T17:20:35.316Z,14.10
2022-09-25T17:23:03.208Z,14.00
2022-09-25T17:25:44.318Z,14.00
2022-09-25T17:28:13.062Z,13.90
2022-09-25T17:30:41.756Z,13.90
2022-09-25T17:33:21.568Z,14.00
2022-09-25T17:35:54.195Z,14.10
2022-09-25T17:38:22.807Z,14.10
2022-09-25T17:40:54.895Z,14.10
2022-09-25T17:43:26.279Z,14.10
2022-09-25T17:45:58.905Z,14.10
2022-09-25T17:48:36.329Z,14.10
2022-09-25T17:51:32.004Z,14.10
2022-09-25T17:54:04.277Z,14.00
2022-09-25T17:56:33.567Z,14.00
2022-09-25T17:59:08.409Z,13.90
2022-09-25T18:01:39.535Z,13.90
2022-09-25T18:04:25.170Z,13.80
2022-09-25T18:06:53.802Z,13.80
2022-09-25T18:09:23.274Z,13.80
2022-09-25T18:11:56.799Z,13.70
2022-09-25T18:14:29.035Z,13.70
2022-09-25T18:16:59.675Z,13.60
2022-09-25T18:19:46.160Z,13.60
2022-09-25T18:22:26.436Z,13.60
2022-09-25T18:24:58.915Z,13.50
2022-09-25T18:27:29.945Z,13.40
2022-09-25T18:29:57.864Z,13.40
2022-09-25T18:32:25.923Z,13.50
2022-09-25T18:34:54.013Z,13.40
2022-09-25T18:37:22.012Z,13.40
2022-09-25T18:39:50.110Z,13.40
2022-09-25T18:42:19.180Z,13.30
2022-09-25T18:44:47.188Z,13.30
2022-09-25T18:47:15.293Z,13.30
2022-09-25T18:49:44.171Z,13.30
2022-09-25T18:52:12.803Z,13.30
2022-09-25T18:54:43.125Z,13.30
2022-09-25T18:57:16.491Z,13.30
2022-09-25T18:59:49.804Z,13.20
2022-09-25T19:02:29.602Z,13.20
2022-09-25T19:04:58.876Z,13.20
2022-09-25T19:07:29.108Z,13.20
2022-09-25T19:09:59.360Z,13.10
2022-09-25T19:12:27.764Z,13.20
2022-09-25T19:14:55.775Z,13.10
2022-09-25T19:17:23.667Z,13.10
2022-09-25T19:19:51.641Z,13.10
2022-09-25T19:22:23.498Z,13.00
2022-09-25T19:24:52.315Z,13.00
2022-09-25T19:27:20.633Z,12.90
2022-09-25T19:29:48.598Z,12.90
2022-09-25T19:32:20.091Z,12.80
2022-09-25T19:34:47.902Z,12.80
2022-09-25T19:37:16.315Z,12.70
2022-09-25T19:40:13.530Z,12.70
2022-09-25T19:42:46.568Z,12.60
2022-09-25T19:45:18.272Z,12.50
2022-09-25T19:47:46.357Z,12.50
2022-09-25T19:50:14.354Z,12.50
2022-09-25T19:52:42.321Z,12.50
2022-09-25T19:55:10.269Z,12.50
2022-09-25T19:57:38.146Z,12.50
2022-09-25T20:00:07.022Z,12.50
2022-09-25T20:02:36.870Z,12.50
2022-09-25T20:05:04.920Z,12.50
2022-09-25T20:07:32.826Z,12.60
2022-09-25T20:10:00.743Z,12.60
2022-09-25T20:12:28.671Z,12.60
2022-09-25T20:14:56.531Z,12.60
2022-09-25T20:17:24.394Z,12.60
2022-09-25T20:19:52.247Z,12.50
2022-09-25T20:22:20.106Z,12.60
2022-09-25T20:24:48.276Z,12.50
2022-09-25T20:27:19.833Z,12.50
2022-09-25T20:29:51.078Z,12.50
2022-09-25T20:32:21.217Z,12.50
2022-09-25T20:34:49.062Z,12.50
2022-09-25T20:37:16.894Z,12.50
2022-09-25T20:39:45.318Z,12.50
2022-09-25T20:42:13.159Z,12.50
2022-09-25T20:44:41.025Z,12.50
2022-09-25T20:47:09.324Z,12.50
2022-09-25T20:49:37.423Z,12.50
2022-09-25T20:52:05.633Z,12.60
2022-09-25T20:54:33.767Z,12.60
2022-09-25T20:57:01.715Z,12.60
2022-09-25T20:59:31.831Z,12.60
2022-09-25T21:01:59.873Z,12.60
2022-09-25T21:04:28.321Z,12.60
2022-09-25T21:06:56.266Z,12.60
2022-09-25T21:09:30.787Z,12.60
2022-09-25T21:11:59.550Z,12.60
2022-09-25T21:14:31.530Z,12.60
2022-09-25T21:17:02.587Z,12.60
2022-09-25T21:19:33.137Z,12.60
2022-09-25T21:22:01.017Z,12.60
2022-09-25T21:24:32.358Z,12.60
2022-09-25T21:27:00.232Z,12.60
2022-09-25T21:29:28.177Z,12.60
2022-09-25T21:31:56.413Z,12.60
2022-09-25T21:34:24.378Z,12.60
2022-09-25T21:36:52.255Z,12.60
2022-09-25T21:39:21.398Z,12.60
2022-09-25T21:41:49.562Z,12.60
2022-09-25T21:44:21.343Z,12.60
2022-09-25T21:46:49.273Z,12.60
2022-09-25T21:49:22.706Z,12.60
2022-09-25T21:51:51.092Z,12.50
2022-09-25T21:54:19.607Z,12.50
2022-09-25T21:56:48.358Z,12.50
2022-09-25T21:59:16.913Z,12.50
2022-09-25T22:01:45.685Z,12.50
2022-09-25T22:04:16.569Z,12.50
2022-09-25T22:06:47.278Z,12.40
2022-09-25T22:09:21.518Z,12.40
2022-09-25T22:11:50.155Z,12.40
2022-09-25T22:14:19.549Z,12.50
2022-09-25T22:16:50.645Z,12.50
2022-09-25T22:19:18.544Z,12.50
2022-09-25T22:21:48.684Z,12.50
2022-09-25T22:24:17.355Z,12.40
2022-09-25T22:26:51.142Z,12.40
2022-09-25T22:29:22.732Z,12.40
2022-09-25T22:31:51.069Z,12.30
2022-09-25T22:34:20.922Z,12.30
2022-09-25T22:36:52.465Z,12.30
2022-09-25T22:39:23.458Z,12.30
2022-09-25T22:41:54.122Z,12.30
2022-09-25T22:44:22.817Z,12.20
2022-09-25T22:46:50.981Z,12.20
2022-09-25T22:49:19.004Z,12.20
2022-09-25T22:51:46.918Z,12.20
2022-09-25T22:54:15.632Z,12.20
2022-09-25T22:56:44.635Z,12.20
2022-09-25T22:59:17.171Z,12.10
2022-09-25T23:01:53.985Z,12.10
2022-09-25T23:04:24.693Z,12.10
2022-09-25T23:06:53.180Z,12.10
2022-09-25T23:09:23.883Z,12.10
2022-09-25T23:11:51.776Z,12.10
2022-09-25T23:14:22.902Z,12.10
2022-09-25T23:16:52.861Z,12.10
2022-09-25T23:19:22.070Z,12.10
2022-09-25T23:21:51.692Z,12.10
2022-09-25T23:24:25.327Z,12.10
2022-09-25T23:26:57.147Z,12.00
2022-09-25T23:29:25.072Z,12.00
2022-09-25T23:31:53.291Z,12.00
2022-09-25T23:34:21.546Z,11.90
2022-09-25T23:36:49.661Z,11.90
2022-09-25T23:39:20.308Z,11.90
2022-09-25T23:41:48.440Z,11.90
2022-09-25T23:44:16.535Z,11.90
2022-09-25T23:46:45.274Z,12.00
2022-09-25T23:49:13.443Z,12.00
2022-09-25T23:51:41.586Z,12.00
2022-09-25T23:54:10.855Z,12.00
2022-09-25T23:56:40.174Z,12.00
2022-09-25T23:59:08.415Z,12.00
